createdAt,value
2023-02-17T00:01:50.630Z,80.57
2023-02-17T00:03:53.126Z,80.20
2023-02-17T00:05:54.708Z,88.15
2023-02-17T00:07:56.238Z,74.20
2023-02-17T00:09:58.911Z,72.22
2023-02-17T00:12:00.442Z,78.28
2023-02-17T00:14:01.953Z,81.50
2023-02-17T00:16:32.561Z,78.65
2023-02-17T00:18:34.114Z,81.03
2023-02-17T00:20:35.639Z,77.15
2023-02-17T00:22:37.152Z,75.50
2023-02-17T00:24:39.722Z,72.30
2023-02-17T00:26:41.257Z,74.75
2023-02-17T00:28:43.822Z,82.55
2023-02-17T00:30:45.344Z,92.90
2023-02-17T00:32:46.898Z,78.38
2023-02-17T00:34:48.427Z,73.90
2023-02-17T00:36:50.006Z,69.93
2023-02-17T00:38:53.633Z,67.32
2023-02-17T00:40:55.190Z,71.53
2023-02-17T00:42:56.700Z,69.00
2023-02-17T00:44:58.199Z,54.10
2023-02-17T00:46:59.735Z,48.72
2023-02-17T00:49:01.208Z,49.13
2023-02-17T00:51:02.999Z,50.70
2023-02-17T00:53:04.561Z,59.35
2023-02-17T00:55:06.400Z,60.92
2023-02-17T00:57:07.899Z,57.80
2023-02-17T00:59:10.832Z,59.70
2023-02-17T01:01:12.374Z,57.55
2023-02-17T01:03:13.934Z,55.72
2023-02-17T01:05:15.487Z,51.85
2023-02-17T01:07:17.068Z,51.80
2023-02-17T01:09:18.627Z,48.83
2023-02-17T01:11:28.622Z,50.65
2023-02-17T01:13:30.105Z,50.88
2023-02-17T01:15:32.907Z,54.92
2023-02-17T01:17:34.430Z,53.33
2023-02-17T01:19:35.947Z,54.20
2023-02-17T01:21:37.522Z,54.42
2023-02-17T01:23:39.042Z,54.08
2023-02-17T01:25:42.537Z,54.15
2023-02-17T01:27:44.298Z,53.72
2023-02-17T01:29:46.697Z,57.88
2023-02-17T01:31:48.255Z,55.83
2023-02-17T01:33:50.384Z,54.08
2023-02-17T01:35:51.907Z,52.63
2023-02-17T01:37:53.457Z,50.50
2023-02-17T01:39:54.953Z,49.10
2023-02-17T01:41:56.966Z,48.40
2023-02-17T01:44:07.475Z,50.25
2023-02-17T01:46:09.594Z,49.20
2023-02-17T01:48:14.624Z,46.28
2023-02-17T01:50:19.314Z,44.72
2023-02-17T01:52:24.754Z,43.30
2023-02-17T01:54:36.018Z,43.30
2023-02-17T01:56:41.108Z,42.03
2023-02-17T01:58:51.862Z,40.95
2023-02-17T02:00:56.513Z,40.10
2023-02-17T02:03:00.891Z,41.53
2023-02-17T02:05:03.729Z,38.17
2023-02-17T02:07:10.375Z,37.90
2023-02-17T02:09:47.334Z,48.58
2023-02-17T02:11:50.945Z,38.88
2023-02-17T02:13:52.532Z,41.17
2023-02-17T02:16:18.857Z,44.33
2023-02-17T02:18:20.418Z,39.38
2023-02-17T02:21:02.573Z,36.78
2023-02-17T02:23:04.043Z,36.03
2023-02-17T02:25:19.960Z,37.15
2023-02-17T02:27:49.025Z,38.70
2023-02-17T02:30:05.531Z,37.13
2023-02-17T02:32:43.291Z,40.00
2023-02-17T02:34:53.438Z,37.72
2023-02-17T02:37:13.045Z,37.22
2023-02-17T02:41:23.842Z,36.97
2023-02-17T02:43:25.800Z,37.45
2023-02-17T02:45:27.333Z,38.13
2023-02-17T02:47:51.675Z,38.45
2023-02-17T02:49:53.391Z,39.53
2023-02-17T02:52:24.658Z,39.05
2023-02-17T02:54:36.990Z,37.67
2023-02-17T02:57:10.009Z,39.08
2023-02-17T02:59:57.448Z,39.15
2023-02-17T03:02:33.734Z,36.90
2023-02-17T03:04:45.150Z,37.03
2023-02-17T03:06:56.060Z,37.78
2023-02-17T03:09:05.072Z,38.20
2023-02-17T03:11:07.020Z,36.28
2023-02-17T03:13:08.588Z,38.58
2023-02-17T03:15:19.640Z,39.05
2023-02-17T03:17:21.230Z,36.92
2023-02-17T03:19:24.727Z,35.42
2023-02-17T03:21:33.547Z,36.03
2023-02-17T03:23:35.016Z,26.67
2023-02-17T03:25:36.526Z,37.75
2023-02-17T03:27:38.007Z,36.13
2023-02-17T03:29:40.025Z,36.38
2023-02-17T03:31:41.901Z,37.40
2023-02-17T03:33:43.543Z,36.53
2023-02-17T03:35:45.515Z,33.78
2023-02-17T03:37:47.037Z,34.22
2023-02-17T03:39:48.653Z,34.97
2023-02-17T03:41:51.700Z,35.55
2023-02-17T03:43:53.358Z,35.30
2023-02-17T03:45:54.938Z,35.67
2023-02-17T03:47:56.492Z,33.67
2023-02-17T03:49:57.996Z,34.47
2023-02-17T03:51:59.582Z,35.55
2023-02-17T03:54:01.236Z,36.58
2023-02-17T03:56:02.818Z,36.67
2023-02-17T03:58:04.787Z,34.55
2023-02-17T04:00:07.886Z,32.65
2023-02-17T04:02:09.467Z,34.38
2023-02-17T04:04:11.063Z,35.17
2023-02-17T04:06:12.826Z,40.90
2023-02-17T04:08:14.364Z,36.08
2023-02-17T04:10:16.253Z,36.00
2023-02-17T04:12:17.751Z,34.85
2023-02-17T04:14:19.291Z,33.72
2023-02-17T04:16:20.999Z,32.95
2023-02-17T04:18:22.847Z,33.15
2023-02-17T04:20:24.642Z,31.15
2023-02-17T04:22:26.237Z,31.55
2023-02-17T04:24:27.766Z,33.80
2023-02-17T04:26:29.845Z,33.75
2023-02-17T04:28:31.411Z,33.65
2023-02-17T04:30:33.430Z,33.63
2023-02-17T04:32:35.026Z,31.90
2023-02-17T04:34:36.655Z,33.13
2023-02-17T04:36:38.184Z,33.60
2023-02-17T04:38:40.043Z,33.78
2023-02-17T04:40:42.204Z,34.25
2023-02-17T04:42:44.262Z,32.10
2023-02-17T04:44:45.815Z,37.63
2023-02-17T04:46:47.369Z,34.13
2023-02-17T04:48:48.861Z,32.28
2023-02-17T04:50:51.128Z,32.35
2023-02-17T04:52:52.672Z,32.40
2023-02-17T04:54:54.250Z,31.35
2023-02-17T04:56:55.788Z,34.08
2023-02-17T04:58:57.262Z,29.48
2023-02-17T05:01:00.815Z,30.70
2023-02-17T05:03:02.473Z,31.95
2023-02-17T05:05:04.120Z,32.20
2023-02-17T05:07:05.644Z,33.42
2023-02-17T05:09:07.183Z,34.40
2023-02-17T05:11:08.665Z,34.17
2023-02-17T05:13:10.329Z,31.65
2023-02-17T05:15:12.657Z,34.08
2023-02-17T05:17:14.194Z,34.47
2023-02-17T05:19:15.724Z,35.35
2023-02-17T05:21:17.262Z,34.83
2023-02-17T05:23:18.849Z,32.47
2023-02-17T05:25:20.408Z,32.03
2023-02-17T05:27:22.086Z,37.45
2023-02-17T05:29:24.297Z,31.60
2023-02-17T05:31:25.934Z,32.95
2023-02-17T05:33:27.646Z,37.67
2023-02-17T05:35:29.143Z,36.65
2023-02-17T05:37:30.658Z,40.45
2023-02-17T05:39:32.256Z,39.45
2023-02-17T05:41:33.773Z,37.15
2023-02-17T05:43:35.281Z,38.28
2023-02-17T05:45:37.096Z,37.90
2023-02-17T05:47:38.656Z,37.75
2023-02-17T05:49:40.243Z,39.05
2023-02-17T05:51:41.729Z,38.10
2023-02-17T05:53:44.290Z,38.95
2023-02-17T05:55:47.020Z,37.40
2023-02-17T05:57:50.098Z,40.22
2023-02-17T05:59:51.582Z,38.92
2023-02-17T06:01:53.208Z,38.15
2023-02-17T06:03:54.783Z,37.20
2023-02-17T06:05:56.289Z,36.65
2023-02-17T06:07:57.853Z,35.85
2023-02-17T06:09:59.349Z,36.10
2023-02-17T06:12:01.001Z,37.40
2023-02-17T06:14:02.578Z,37.67
2023-02-17T06:16:04.505Z,35.08
2023-02-17T06:18:06.188Z,31.15
2023-02-17T06:20:09.057Z,30.58
2023-02-17T06:22:10.579Z,29.33
2023-02-17T06:24:12.216Z,30.83
2023-02-17T06:26:14.665Z,28.88
2023-02-17T06:28:16.508Z,32.03
2023-02-17T06:30:18.133Z,29.65
2023-02-17T06:32:19.874Z,29.65
2023-02-17T06:34:21.473Z,30.88
2023-02-17T06:36:22.987Z,31.67
2023-02-17T06:38:24.566Z,30.80
2023-02-17T06:40:28.549Z,28.05
2023-02-17T06:42:30.325Z,28.13
2023-02-17T06:44:31.837Z,27.65
2023-02-17T06:46:33.369Z,27.52
2023-02-17T06:48:35.133Z,28.83
2023-02-17T06:50:36.770Z,28.08
2023-02-17T06:52:38.463Z,30.60
2023-02-17T06:54:39.971Z,31.88
2023-02-17T06:56:41.515Z,31.10
2023-02-17T06:58:43.102Z,35.80
2023-02-17T07:00:44.630Z,30.45
2023-02-17T07:02:46.345Z,28.20
2023-02-17T07:04:48.129Z,26.23
2023-02-17T07:06:49.672Z,25.20
2023-02-17T07:08:51.920Z,26.60
2023-02-17T07:10:54.083Z,27.83
2023-02-17T07:12:55.622Z,29.70
2023-02-17T07:14:57.290Z,29.50
2023-02-17T07:16:58.978Z,30.90
2023-02-17T07:19:00.495Z,28.38
2023-02-17T07:21:02.051Z,27.40
2023-02-17T07:23:03.558Z,26.52
2023-02-17T07:25:06.070Z,28.30
2023-02-17T07:27:10.644Z,25.80
2023-02-17T07:29:12.444Z,28.45
2023-02-17T07:31:16.433Z,29.92
2023-02-17T07:33:18.038Z,30.85
2023-02-17T07:35:19.551Z,31.77
2023-02-17T07:37:21.925Z,31.13
2023-02-17T07:39:23.442Z,30.60
2023-02-17T07:41:28.639Z,28.85
2023-02-17T07:43:30.155Z,30.85
2023-02-17T07:45:31.774Z,29.60
2023-02-17T07:47:33.530Z,29.73
2023-02-17T07:49:35.083Z,30.90
2023-02-17T07:51:36.646Z,29.67
2023-02-17T07:53:38.969Z,31.75
2023-02-17T07:55:40.539Z,30.20
2023-02-17T07:57:42.032Z,30.42
2023-02-17T07:59:43.674Z,30.60
2023-02-17T08:01:45.273Z,30.27
2023-02-17T08:03:48.624Z,38.92
2023-02-17T08:05:51.571Z,33.17
2023-02-17T08:08:13.128Z,30.25
2023-02-17T08:10:33.288Z,29.45
2023-02-17T08:12:53.242Z,31.13
2023-02-17T08:14:57.930Z,31.83
2023-02-17T08:16:59.810Z,30.27
2023-02-17T08:19:01.456Z,30.95
2023-02-17T08:21:03.131Z,29.08
2023-02-17T08:23:04.786Z,30.15
2023-02-17T08:25:06.556Z,30.77
2023-02-17T08:27:08.089Z,31.88
2023-02-17T08:29:09.597Z,33.42
2023-02-17T08:31:26.412Z,31.38
2023-02-17T08:33:28.050Z,30.33
2023-02-17T08:35:29.668Z,31.27
2023-02-17T08:37:32.212Z,33.90
2023-02-17T08:39:34.814Z,32.65
2023-02-17T08:41:38.374Z,28.25
2023-02-17T08:43:41.554Z,31.58
2023-02-17T08:45:43.114Z,32.35
2023-02-17T08:47:44.696Z,29.33
2023-02-17T08:49:46.234Z,31.02
2023-02-17T08:51:48.261Z,28.73
2023-02-17T08:53:51.293Z,29.70
2023-02-17T08:55:52.852Z,28.73
2023-02-17T08:57:54.379Z,31.35
2023-02-17T08:59:56.183Z,30.17
2023-02-17T09:01:58.387Z,34.78
2023-02-17T09:04:01.441Z,44.40
2023-02-17T09:06:03.467Z,51.63
2023-02-17T09:08:05.541Z,39.70
2023-02-17T09:10:08.778Z,42.45
2023-02-17T09:12:10.391Z,46.13
2023-02-17T09:14:12.037Z,48.72
2023-02-17T09:16:13.930Z,46.08
2023-02-17T09:18:16.668Z,37.15
2023-02-17T09:20:24.778Z,30.95
2023-02-17T09:22:31.916Z,33.28
2023-02-17T09:24:35.058Z,36.33
2023-02-17T09:26:36.781Z,33.03
2023-02-17T09:28:39.247Z,36.63
2023-02-17T09:30:41.381Z,36.75
2023-02-17T09:32:44.075Z,30.77
2023-02-17T09:34:51.614Z,34.55
2023-02-17T09:36:53.212Z,28.23
2023-02-17T09:38:55.525Z,29.10
2023-02-17T09:41:05.429Z,30.08
2023-02-17T09:43:14.129Z,29.48
2023-02-17T09:45:27.451Z,27.50
2023-02-17T09:47:41.266Z,30.95
2023-02-17T09:49:47.532Z,28.67
2023-02-17T09:51:59.869Z,28.83
2023-02-17T09:54:54.886Z,29.67
2023-02-17T09:56:57.837Z,28.17
2023-02-17T09:59:04.518Z,28.63
2023-02-17T10:01:18.763Z,29.60
2023-02-17T10:03:44.705Z,29.63
2023-02-17T10:06:11.904Z,32.10
2023-02-17T10:08:19.067Z,29.90
2023-02-17T10:10:35.836Z,32.95
2023-02-17T10:12:43.515Z,30.58
2023-02-17T10:14:51.803Z,30.30
2023-02-17T10:17:55.111Z,29.95
2023-02-17T10:20:05.291Z,28.02
2023-02-17T10:22:17.830Z,29.20
2023-02-17T10:24:19.384Z,28.10
2023-02-17T10:26:30.006Z,28.02
2023-02-17T10:28:39.753Z,29.13
2023-02-17T10:30:57.181Z,29.92
2023-02-17T10:33:02.177Z,29.02
2023-02-17T10:35:17.962Z,27.35
2023-02-17T10:37:33.482Z,27.48
2023-02-17T10:39:48.016Z,28.52
2023-02-17T10:41:51.893Z,27.90
2023-02-17T10:43:54.906Z,26.98
2023-02-17T10:45:57.664Z,28.58
2023-02-17T10:48:11.893Z,26.40
2023-02-17T10:50:22.465Z,27.75
2023-02-17T10:52:32.724Z,39.28
2023-02-17T10:54:46.732Z,25.50
2023-02-17T10:56:52.313Z,26.55
2023-02-17T10:59:20.703Z,27.80
2023-02-17T11:01:23.368Z,26.55
2023-02-17T11:03:29.596Z,25.50
2023-02-17T11:05:33.722Z,25.02
2023-02-17T11:07:43.990Z,25.13
2023-02-17T11:09:52.177Z,39.08
2023-02-17T11:12:00.221Z,28.85
2023-02-17T11:14:04.813Z,96.95
2023-02-17T11:16:07.241Z,87.70
2023-02-17T11:18:12.479Z,41.97
2023-02-17T11:20:14.185Z,26.63
2023-02-17T11:22:31.844Z,23.65
2023-02-17T11:24:35.544Z,28.50
2023-02-17T11:26:37.175Z,42.33
2023-02-17T11:28:38.759Z,79.20
2023-02-17T11:30:49.463Z,76.50
2023-02-17T11:32:51.911Z,111.88
2023-02-17T11:34:58.313Z,29.13
2023-02-17T11:37:12.099Z,28.42
2023-02-17T11:39:21.213Z,162.20
2023-02-17T11:41:23.608Z,31.65
2023-02-17T11:43:25.607Z,29.55
2023-02-17T11:45:49.226Z,53.15
2023-02-17T11:47:53.720Z,147.05
2023-02-17T11:50:09.799Z,36.50
2023-02-17T11:52:17.237Z,49.63
2023-02-17T11:54:33.699Z,61.13
2023-02-17T11:56:38.479Z,22.25
2023-02-17T11:59:08.327Z,17.75
2023-02-17T12:03:38.632Z,22.92
2023-02-17T12:05:48.930Z,16.60
2023-02-17T12:08:01.034Z,17.05
2023-02-17T12:10:16.457Z,18.23
2023-02-17T12:12:39.922Z,20.23
2023-02-17T12:15:09.203Z,17.02
2023-02-17T12:17:33.505Z,22.17
2023-02-17T12:19:37.989Z,29.48
2023-02-17T12:21:58.143Z,67.75
2023-02-17T12:24:23.826Z,23.85
2023-02-17T12:26:40.829Z,24.15
2023-02-17T12:29:16.399Z,21.85
2023-02-17T12:31:20.830Z,19.77
2023-02-17T12:33:52.768Z,20.25
2023-02-17T12:36:07.988Z,19.83
2023-02-17T12:38:18.628Z,19.85
2023-02-17T12:40:42.856Z,17.38
2023-02-17T12:42:53.948Z,19.23
2023-02-17T12:45:07.371Z,18.90
2023-02-17T12:47:28.922Z,23.23
2023-02-17T12:49:43.870Z,36.47
2023-02-17T12:51:56.008Z,25.33
2023-02-17T12:54:06.477Z,28.15
2023-02-17T12:56:39.489Z,31.55
2023-02-17T12:58:42.688Z,23.02
2023-02-17T13:00:52.307Z,30.67
2023-02-17T13:02:58.814Z,32.47
2023-02-17T13:05:04.819Z,31.77
2023-02-17T13:07:40.628Z,32.67
2023-02-17T13:09:45.569Z,28.65
2023-02-17T13:11:47.091Z,34.15
2023-02-17T13:13:48.811Z,42.03
2023-02-17T13:16:03.676Z,37.40
2023-02-17T13:18:29.129Z,28.73
2023-02-17T13:20:52.583Z,26.67
2023-02-17T13:23:06.673Z,31.15
2023-02-17T13:25:13.091Z,33.35
2023-02-17T13:27:27.894Z,27.90
2023-02-17T13:29:35.878Z,32.65
2023-02-17T13:31:50.348Z,33.70
2023-02-17T13:33:55.201Z,26.92
2023-02-17T13:35:56.843Z,24.20
2023-02-17T13:37:58.506Z,35.97
2023-02-17T13:40:01.054Z,30.40
2023-02-17T13:42:03.252Z,18.75
2023-02-17T13:44:29.593Z,18.90
2023-02-17T13:46:31.811Z,20.00
2023-02-17T13:48:35.466Z,33.90
2023-02-17T13:50:43.336Z,25.35
2023-02-17T13:52:44.856Z,21.92
2023-02-17T13:55:03.958Z,21.30
2023-02-17T13:57:05.626Z,21.92
2023-02-17T13:59:17.607Z,23.45
2023-02-17T14:01:22.525Z,21.48
2023-02-17T14:03:27.221Z,25.63
2023-02-17T14:05:40.394Z,23.33
2023-02-17T14:07:41.981Z,22.58
2023-02-17T14:09:51.860Z,23.38
2023-02-17T14:13:57.469Z,23.15
2023-02-17T14:16:00.247Z,24.15
2023-02-17T14:18:13.606Z,23.98
2023-02-17T14:20:35.457Z,24.00
2023-02-17T14:22:37.965Z,26.02
2023-02-17T14:24:39.689Z,26.73
2023-02-17T14:26:49.129Z,27.20
2023-02-17T14:28:55.993Z,27.23
2023-02-17T14:31:09.850Z,26.75
2023-02-17T14:33:17.385Z,25.90
2023-02-17T14:35:23.717Z,23.52
2023-02-17T14:37:25.452Z,25.17
2023-02-17T14:39:27.221Z,26.15
2023-02-17T14:41:29.209Z,29.10
2023-02-17T14:43:30.943Z,30.35
2023-02-17T14:45:32.505Z,41.70
2023-02-17T14:47:34.000Z,30.67
2023-02-17T14:49:36.125Z,31.50
2023-02-17T14:51:38.055Z,29.42
2023-02-17T14:53:40.577Z,32.60
2023-02-17T14:55:50.753Z,29.52
2023-02-17T14:57:52.341Z,39.25
2023-02-17T14:59:57.870Z,93.50
2023-02-17T15:02:02.481Z,85.85
2023-02-17T15:04:04.179Z,42.67
2023-02-17T15:06:18.714Z,46.47
2023-02-17T15:08:24.332Z,38.60
2023-02-17T15:10:27.772Z,41.55
2023-02-17T15:12:29.533Z,35.75
2023-02-17T15:14:31.049Z,40.45
2023-02-17T15:16:35.861Z,55.78
2023-02-17T15:18:37.421Z,47.65
2023-02-17T15:20:42.158Z,46.00
2023-02-17T15:22:44.464Z,51.50
2023-02-17T15:24:46.024Z,50.83
2023-02-17T15:26:48.213Z,43.70
2023-02-17T15:28:50.175Z,45.35
2023-02-17T15:30:55.123Z,59.90
2023-02-17T15:32:56.731Z,66.78
2023-02-17T15:34:59.775Z,74.70
2023-02-17T15:37:01.584Z,59.80
2023-02-17T15:39:03.263Z,42.47
2023-02-17T15:41:11.174Z,41.05
2023-02-17T15:43:17.200Z,48.70
2023-02-17T15:45:20.302Z,38.20
2023-02-17T15:47:22.086Z,48.50
2023-02-17T15:49:23.642Z,54.17
2023-02-17T15:51:25.259Z,48.17
2023-02-17T15:53:29.129Z,59.20
2023-02-17T15:55:30.725Z,67.07
2023-02-17T15:57:32.555Z,58.55
2023-02-17T15:59:34.188Z,53.63
2023-02-17T16:01:36.032Z,56.08
2023-02-17T16:03:37.935Z,60.22
2023-02-17T16:05:40.302Z,43.60
2023-02-17T16:07:41.861Z,49.20
2023-02-17T16:09:43.385Z,42.53
2023-02-17T16:11:51.089Z,49.30
2023-02-17T16:13:52.675Z,54.10
2023-02-17T16:15:57.630Z,43.83
2023-02-17T16:17:59.939Z,51.97
2023-02-17T16:20:01.531Z,48.67
2023-02-17T16:22:03.065Z,48.83
2023-02-17T16:24:05.215Z,50.90
2023-02-17T16:26:22.330Z,45.30
2023-02-17T16:28:23.821Z,40.97
2023-02-17T16:30:30.678Z,38.33
2023-02-17T16:32:34.750Z,39.38
2023-02-17T16:34:37.104Z,37.55
2023-02-17T16:36:39.213Z,45.63
2023-02-17T16:38:40.874Z,44.35
2023-02-17T16:40:49.271Z,52.30
2023-02-17T16:42:51.199Z,52.50
2023-02-17T16:44:52.713Z,51.30
2023-02-17T16:46:55.572Z,60.65
2023-02-17T16:48:58.588Z,76.43
2023-02-17T16:51:00.303Z,35.55
2023-02-17T16:53:04.648Z,60.95
2023-02-17T16:55:06.495Z,31.05
2023-02-17T16:57:19.017Z,55.15
2023-02-17T16:59:22.252Z,35.60
2023-02-17T17:01:24.377Z,34.33
2023-02-17T17:03:26.053Z,28.45
2023-02-17T17:05:28.926Z,27.60
2023-02-17T17:07:31.394Z,30.05
2023-02-17T17:09:32.891Z,28.35
2023-02-17T17:11:34.485Z,28.05
2023-02-17T17:13:36.025Z,26.80
2023-02-17T17:15:40.062Z,29.08
2023-02-17T17:17:45.727Z,31.17
2023-02-17T17:19:47.190Z,27.27
2023-02-17T17:21:49.492Z,25.27
2023-02-17T17:23:51.227Z,29.17
2023-02-17T17:25:52.790Z,41.53
2023-02-17T17:27:54.838Z,28.55
2023-02-17T17:29:56.398Z,27.00
2023-02-17T17:31:58.066Z,28.23
2023-02-17T17:33:59.835Z,28.65
2023-02-17T17:36:01.407Z,29.30
2023-02-17T17:38:03.004Z,31.70
2023-02-17T17:40:05.301Z,29.23
2023-02-17T17:42:06.858Z,30.83
2023-02-17T17:44:10.377Z,26.20
2023-02-17T17:46:28.596Z,26.08
2023-02-17T17:48:30.113Z,25.23
2023-02-17T17:50:31.707Z,25.13
2023-02-17T17:52:33.253Z,23.55
2023-02-17T17:54:34.847Z,27.23
2023-02-17T17:56:42.959Z,25.55
2023-02-17T17:58:45.298Z,27.10
2023-02-17T18:00:47.404Z,25.58
2023-02-17T18:02:48.960Z,31.23
2023-02-17T18:04:50.569Z,147.45
2023-02-17T18:06:55.469Z,26.98
2023-02-17T18:09:02.415Z,25.65
2023-02-17T18:11:04.058Z,24.95
2023-02-17T18:13:08.561Z,29.05
2023-02-17T18:15:10.896Z,23.77
2023-02-17T18:17:14.582Z,23.70
2023-02-17T18:19:19.516Z,24.98
2023-02-17T18:21:21.059Z,24.73
2023-02-17T18:23:22.873Z,20.13
2023-02-17T18:25:25.253Z,22.70
2023-02-17T18:27:26.969Z,23.58
2023-02-17T18:29:28.517Z,24.10
2023-02-17T18:31:30.156Z,33.05
2023-02-17T18:33:32.834Z,40.10
2023-02-17T18:35:38.692Z,36.47
2023-02-17T18:37:41.162Z,28.92
2023-02-17T18:39:42.766Z,37.33
2023-02-17T18:41:44.293Z,31.70
2023-02-17T18:43:46.146Z,32.97
2023-02-17T18:45:48.809Z,32.13
2023-02-17T18:47:50.334Z,34.42
2023-02-17T18:49:52.296Z,26.27
2023-02-17T18:51:54.569Z,28.13
2023-02-17T18:53:57.830Z,27.90
2023-02-17T18:55:59.379Z,24.83
2023-02-17T18:58:00.909Z,28.08
2023-02-17T19:00:04.736Z,28.63
2023-02-17T19:02:08.797Z,25.20
2023-02-17T19:04:11.870Z,24.20
2023-02-17T19:06:17.195Z,19.77
2023-02-17T19:08:18.771Z,24.88
2023-02-17T19:10:20.438Z,25.27
2023-02-17T19:12:21.973Z,26.05
2023-02-17T19:14:23.533Z,28.17
2023-02-17T19:16:28.222Z,23.15
2023-02-17T19:18:29.705Z,23.92
2023-02-17T19:20:31.736Z,22.38
2023-02-17T19:22:37.378Z,23.88
2023-02-17T19:24:40.657Z,26.42
2023-02-17T19:26:42.834Z,20.60
2023-02-17T19:28:45.662Z,23.45
2023-02-17T19:30:47.351Z,21.35
2023-02-17T19:32:48.893Z,22.80
2023-02-17T19:34:50.661Z,21.10
2023-02-17T19:36:52.270Z,20.25
2023-02-17T19:38:56.305Z,21.55
2023-02-17T19:40:57.838Z,20.35
2023-02-17T19:43:01.395Z,25.58
2023-02-17T19:45:03.235Z,22.30
2023-02-17T19:47:04.794Z,23.92
2023-02-17T19:49:06.910Z,24.48
2023-02-17T19:51:09.489Z,55.85
2023-02-17T19:53:11.546Z,54.72
2023-02-17T19:55:13.331Z,189.55
2023-02-17T19:57:17.368Z,307.73
2023-02-17T19:59:19.304Z,225.50
2023-02-17T20:01:27.117Z,41.15
2023-02-17T20:03:28.638Z,36.75
2023-02-17T20:05:31.474Z,40.72
2023-02-17T20:07:33.026Z,139.13
2023-02-17T20:09:34.728Z,144.27
2023-02-17T20:11:36.482Z,246.35
2023-02-17T20:13:45.677Z,42.10
2023-02-17T20:17:49.503Z,98.80
2023-02-17T20:19:51.129Z,52.05
2023-02-17T20:21:52.626Z,32.67
2023-02-17T20:23:55.124Z,36.22
2023-02-17T20:25:58.484Z,35.72
2023-02-17T20:28:00.149Z,23.10
2023-02-17T20:30:02.315Z,24.25
2023-02-17T20:32:04.493Z,27.98
2023-02-17T20:34:07.828Z,30.20
2023-02-17T20:36:10.132Z,44.60
2023-02-17T20:38:12.085Z,39.67
2023-02-17T20:40:13.911Z,34.45
2023-02-17T20:42:15.489Z,26.17
2023-02-17T20:44:18.129Z,29.67
2023-02-17T20:46:27.696Z,24.30
2023-02-17T20:48:29.435Z,27.50
2023-02-17T20:50:31.133Z,28.58
2023-02-17T20:52:32.694Z,31.27
2023-02-17T20:54:34.722Z,28.73
2023-02-17T20:56:41.713Z,29.52
2023-02-17T20:58:43.442Z,26.17
2023-02-17T21:00:45.181Z,37.00
2023-02-17T21:02:47.058Z,26.52
2023-02-17T21:04:49.363Z,29.58
2023-02-17T21:06:51.761Z,35.95
2023-02-17T21:08:57.526Z,29.45
2023-02-17T21:10:59.037Z,26.33
2023-02-17T21:13:01.061Z,31.00
2023-02-17T21:15:02.600Z,28.73
2023-02-17T21:17:04.226Z,25.27
2023-02-17T21:19:05.926Z,31.45
2023-02-17T21:21:07.476Z,24.42
2023-02-17T21:23:09.011Z,27.83
2023-02-17T21:25:10.579Z,30.60
2023-02-17T21:27:12.333Z,27.77
2023-02-17T21:29:13.998Z,28.17
2023-02-17T21:31:16.360Z,23.52
2023-02-17T21:33:18.128Z,24.02
2023-02-17T21:35:19.682Z,23.98
2023-02-17T21:37:21.198Z,21.98
2023-02-17T21:39:22.688Z,28.42
2023-02-17T21:41:26.478Z,24.13
2023-02-17T21:43:46.746Z,24.35
2023-02-17T21:45:48.339Z,21.42
2023-02-17T21:47:50.023Z,23.67
2023-02-17T21:49:53.940Z,25.83
2023-02-17T21:51:55.442Z,21.58
2023-02-17T21:53:57.882Z,23.85
2023-02-17T21:55:59.911Z,26.95
2023-02-17T21:58:01.418Z,25.02
2023-02-17T22:00:04.286Z,25.02
2023-02-17T22:02:05.793Z,26.35
2023-02-17T22:04:07.351Z,32.97
2023-02-17T22:06:29.868Z,58.00
2023-02-17T22:08:31.403Z,26.95
2023-02-17T22:10:37.508Z,25.17
2023-02-17T22:12:39.032Z,26.45
2023-02-17T22:14:40.523Z,21.63
2023-02-17T22:16:42.479Z,22.20
2023-02-17T22:18:44.088Z,19.30
2023-02-17T22:20:45.601Z,20.30
2023-02-17T22:22:47.135Z,21.40
2023-02-17T22:24:48.643Z,20.27
2023-02-17T22:26:50.260Z,17.30
2023-02-17T22:28:53.461Z,19.48
2023-02-17T22:30:55.032Z,19.30
2023-02-17T22:32:56.988Z,15.90
2023-02-17T22:34:58.719Z,15.77
2023-02-17T22:37:00.272Z,10.63
2023-02-17T22:39:04.333Z,24.23
2023-02-17T22:41:07.812Z,19.92
2023-02-17T22:43:09.358Z,17.52
2023-02-17T22:45:10.862Z,67.75
2023-02-17T22:47:12.387Z,51.88
2023-02-17T22:49:13.938Z,47.00
2023-02-17T22:51:18.287Z,39.38
2023-02-17T22:53:19.860Z,11.10
2023-02-17T22:55:21.339Z,12.50
2023-02-17T22:57:22.947Z,26.60
2023-02-17T22:59:24.650Z,32.60
2023-02-17T23:01:27.498Z,21.25
2023-02-17T23:03:29.142Z,11.40
2023-02-17T23:05:30.688Z,15.18
2023-02-17T23:07:32.184Z,11.68
2023-02-17T23:09:33.765Z,10.85
2023-02-17T23:12:04.357Z,13.32
2023-02-17T23:14:06.105Z,18.27
2023-02-17T23:16:08.788Z,19.92
2023-02-17T23:18:13.614Z,31.92
2023-02-17T23:20:15.139Z,36.65
2023-02-17T23:22:18.305Z,18.60
2023-02-17T23:24:20.658Z,16.05
2023-02-17T23:26:22.177Z,9.68
2023-02-17T23:28:25.332Z,70.57
2023-02-17T23:30:27.787Z,13.35
2023-02-17T23:32:29.512Z,13.27
2023-02-17T23:34:31.144Z,16.25
2023-02-17T23:36:32.832Z,31.23
2023-02-17T23:38:34.674Z,17.45
2023-02-17T23:40:37.133Z,13.85
2023-02-17T23:42:38.646Z,12.55
2023-02-17T23:44:40.187Z,14.60
2023-02-17T23:46:43.465Z,9.05
2023-02-17T23:48:45.064Z,10.18
2023-02-17T23:50:54.819Z,7.25
2023-02-17T23:52:56.312Z,6.10
2023-02-17T23:54:57.949Z,6.55
2023-02-17T23:56:59.485Z,4.30
2023-02-17T23:59:01.692Z,5.70
